sensor_id;sensor_type;location;lat;lon;timestamp;pressure;altitude;pressure_sealevel;temperature;humidity
54920;BME280;63804;53.120;8.764;2024-02-15T00:00:01;101611.03;;;12.34;97.01
54920;BME280;63804;53.120;8.764;2024-02-15T00:02:29;101609.41;;;12.32;96.93
54920;BME280;63804;53.120;8.764;2024-02-15T00:04:56;101612.00;;;12.33;96.91
54920;BME280;63804;53.120;8.764;2024-02-15T00:07:23;101616.13;;;12.37;96.88
54920;BME280;63804;53.120;8.764;2024-02-15T00:09:50;101617.94;;;12.37;96.96
54920;BME280;63804;53.120;8.764;2024-02-15T00:12:18;101612.41;;;12.40;96.79
54920;BME280;63804;53.120;8.764;2024-02-15T00:14:46;101618.59;;;12.40;96.61
54920;BME280;63804;53.120;8.764;2024-02-15T00:17:13;101618.78;;;12.37;96.93
54920;BME280;63804;53.120;8.764;2024-02-15T00:19:40;101614.66;;;12.33;97.28
54920;BME280;63804;53.120;8.764;2024-02-15T00:22:09;101622.69;;;12.32;97.27
54920;BME280;63804;53.120;8.764;2024-02-15T00:24:37;101618.47;;;12.29;97.86
54920;BME280;63804;53.120;8.764;2024-02-15T00:27:05;101627.16;;;12.31;97.73
54920;BME280;63804;53.120;8.764;2024-02-15T00:29:32;101619.63;;;12.25;97.98
54920;BME280;63804;53.120;8.764;2024-02-15T00:32:01;101626.13;;;12.34;97.79
54920;BME280;63804;53.120;8.764;2024-02-15T00:34:31;101617.38;;;12.32;97.61
54920;BME280;63804;53.120;8.764;2024-02-15T00:36:59;101621.53;;;12.36;97.57
54920;BME280;63804;53.120;8.764;2024-02-15T00:39:27;101623.78;;;12.42;97.22
54920;BME280;63804;53.120;8.764;2024-02-15T00:41:54;101621.97;;;12.42;97.35
54920;BME280;63804;53.120;8.764;2024-02-15T00:44:22;101625.47;;;12.43;97.02
54920;BME280;63804;53.120;8.764;2024-02-15T00:46:50;101625.47;;;12.43;96.99
54920;BME280;63804;53.120;8.764;2024-02-15T00:49:17;101615.94;;;12.40;97.22
54920;BME280;63804;53.120;8.764;2024-02-15T00:51:47;101620.28;;;12.41;97.35
54920;BME280;63804;53.120;8.764;2024-02-15T00:54:15;101611.78;;;12.36;97.58
54920;BME280;63804;53.120;8.764;2024-02-15T00:56:42;101633.56;;;12.41;98.04
54920;BME280;63804;53.120;8.764;2024-02-15T00:59:09;101628.34;;;12.40;98.22
54920;BME280;63804;53.120;8.764;2024-02-15T01:01:36;101623.34;;;12.35;98.67
54920;BME280;63804;53.120;8.764;2024-02-15T01:04:05;101627.72;;;12.36;98.82
54920;BME280;63804;53.120;8.764;2024-02-15T01:06:32;101619.97;;;12.33;99.05
54920;BME280;63804;53.120;8.764;2024-02-15T01:09:00;101628.47;;;12.38;98.94
54920;BME280;63804;53.120;8.764;2024-02-15T01:11:30;101632.72;;;12.41;98.73
54920;BME280;63804;53.120;8.764;2024-02-15T01:13:59;101636.22;;;12.41;98.25
54920;BME280;63804;53.120;8.764;2024-02-15T01:16:26;101633.88;;;12.37;98.55
54920;BME280;63804;53.120;8.764;2024-02-15T01:18:53;101641.63;;;12.40;98.69
54920;BME280;63804;53.120;8.764;2024-02-15T01:21:20;101635.47;;;12.39;98.58
54920;BME280;63804;53.120;8.764;2024-02-15T01:23:49;101636.03;;;12.44;98.32
54920;BME280;63804;53.120;8.764;2024-02-15T01:26:17;101635.38;;;12.41;98.06
54920;BME280;63804;53.120;8.764;2024-02-15T01:28:44;101630.72;;;12.44;98.27
54920;BME280;63804;53.120;8.764;2024-02-15T01:31:11;101626.03;;;12.48;97.82
54920;BME280;63804;53.120;8.764;2024-02-15T01:33:39;101634.94;;;12.47;98.06
54920;BME280;63804;53.120;8.764;2024-02-15T01:36:07;101629.00;;;12.43;97.85
54920;BME280;63804;53.120;8.764;2024-02-15T01:38:35;101631.25;;;12.50;97.68
54920;BME280;63804;53.120;8.764;2024-02-15T01:41:02;101633.25;;;12.46;97.88
54920;BME280;63804;53.120;8.764;2024-02-15T01:43:30;101629.44;;;12.50;97.79
54920;BME280;63804;53.120;8.764;2024-02-15T01:45:58;101638.44;;;12.48;97.77
54920;BME280;63804;53.120;8.764;2024-02-15T01:48:29;101642.19;;;12.45;98.11
54920;BME280;63804;53.120;8.764;2024-02-15T01:50:57;101636.09;;;12.43;98.14
54920;BME280;63804;53.120;8.764;2024-02-15T01:53:25;101638.56;;;12.46;98.14
54920;BME280;63804;53.120;8.764;2024-02-15T01:55:53;101618.69;;;12.39;98.05
54920;BME280;63804;53.120;8.764;2024-02-15T01:58:22;101630.41;;;12.49;97.84
54920;BME280;63804;53.120;8.764;2024-02-15T02:00:49;101629.56;;;12.49;97.50
54920;BME280;63804;53.120;8.764;2024-02-15T02:03:16;101628.59;;;12.50;97.59
54920;BME280;63804;53.120;8.764;2024-02-15T02:05:45;101619.13;;;12.46;97.63
54920;BME280;63804;53.120;8.764;2024-02-15T02:08:12;101629.88;;;12.44;97.84
54920;BME280;63804;53.120;8.764;2024-02-15T02:10:39;101628.91;;;12.45;97.81
54920;BME280;63804;53.120;8.764;2024-02-15T02:13:07;101625.16;;;12.48;98.04
54920;BME280;63804;53.120;8.764;2024-02-15T02:15:35;101632.22;;;12.49;97.58
54920;BME280;63804;53.120;8.764;2024-02-15T02:18:04;101625.41;;;12.44;97.58
54920;BME280;63804;53.120;8.764;2024-02-15T02:20:36;101632.09;;;12.50;97.72
54920;BME280;63804;53.120;8.764;2024-02-15T02:23:07;101623.91;;;12.53;97.56
54920;BME280;63804;53.120;8.764;2024-02-15T02:25:34;101622.09;;;12.54;97.42
54920;BME280;63804;53.120;8.764;2024-02-15T02:28:02;101614.25;;;12.52;97.24
54920;BME280;63804;53.120;8.764;2024-02-15T02:30:29;101614.91;;;12.56;97.23
54920;BME280;63804;53.120;8.764;2024-02-15T02:32:56;101612.25;;;12.56;97.23
54920;BME280;63804;53.120;8.764;2024-02-15T02:35:27;101600.84;;;12.54;97.01
54920;BME280;63804;53.120;8.764;2024-02-15T02:37:56;101602.53;;;12.55;97.09
54920;BME280;63804;53.120;8.764;2024-02-15T02:40:23;101609.78;;;12.53;96.94
54920;BME280;63804;53.120;8.764;2024-02-15T02:42:55;101612.25;;;12.56;96.69
54920;BME280;63804;53.120;8.764;2024-02-15T02:45:31;101622.09;;;12.54;96.99
54920;BME280;63804;53.120;8.764;2024-02-15T02:47:58;101618.28;;;12.58;96.70
54920;BME280;63804;53.120;8.764;2024-02-15T02:50:26;101629.66;;;12.60;96.23
54920;BME280;63804;53.120;8.764;2024-02-15T02:52:53;101626.25;;;12.58;96.12
54920;BME280;63804;53.120;8.764;2024-02-15T02:55:22;101630.53;;;12.60;96.43
54920;BME280;63804;53.120;8.764;2024-02-15T02:57:49;101634.88;;;12.61;96.25
54920;BME280;63804;53.120;8.764;2024-02-15T03:00:16;101626.78;;;12.63;96.28
54920;BME280;63804;53.120;8.764;2024-02-15T03:02:45;101636.81;;;12.59;96.30
54920;BME280;63804;53.120;8.764;2024-02-15T03:05:13;101635.72;;;12.62;96.52
54920;BME280;63804;53.120;8.764;2024-02-15T03:07:40;101627.75;;;12.62;96.22
54920;BME280;63804;53.120;8.764;2024-02-15T03:10:08;101639.34;;;12.61;96.24
54920;BME280;63804;53.120;8.764;2024-02-15T03:12:37;101634.03;;;12.61;96.25
54920;BME280;63804;53.120;8.764;2024-02-15T03:15:05;101635.00;;;12.60;96.40
54920;BME280;63804;53.120;8.764;2024-02-15T03:17:42;101630.59;;;12.59;96.57
54920;BME280;63804;53.120;8.764;2024-02-15T03:20:11;101638.50;;;12.60;96.62
54920;BME280;63804;53.120;8.764;2024-02-15T03:25:18;101634.88;;;12.61;96.44
54920;BME280;63804;53.120;8.764;2024-02-15T03:27:46;101631.38;;;12.61;96.23
54920;BME280;63804;53.120;8.764;2024-02-15T03:30:13;101635.72;;;12.62;96.15
54920;BME280;63804;53.120;8.764;2024-02-15T03:32:40;101635.84;;;12.60;96.45
54920;BME280;63804;53.120;8.764;2024-02-15T03:35:08;101632.63;;;12.55;96.79
54920;BME280;63804;53.120;8.764;2024-02-15T03:37:35;101641.34;;;12.57;96.35
54920;BME280;63804;53.120;8.764;2024-02-15T03:40:05;101629.03;;;12.56;96.39
54920;BME280;63804;53.120;8.764;2024-02-15T03:42:33;101636.56;;;12.62;96.24
54920;BME280;63804;53.120;8.764;2024-02-15T03:45:00;101642.84;;;12.61;96.25
54920;BME280;63804;53.120;8.764;2024-02-15T03:47:28;101652.50;;;12.62;96.14
54920;BME280;63804;53.120;8.764;2024-02-15T03:49:56;101651.66;;;12.62;96.02
54920;BME280;63804;53.120;8.764;2024-02-15T03:52:23;101645.63;;;12.60;96.22
54920;BME280;63804;53.120;8.764;2024-02-15T03:54:51;101647.50;;;12.58;96.30
54920;BME280;63804;53.120;8.764;2024-02-15T03:57:19;101652.09;;;12.56;96.17
54920;BME280;63804;53.120;8.764;2024-02-15T03:59:47;101647.50;;;12.58;96.38
54920;BME280;63804;53.120;8.764;2024-02-15T04:02:20;101656.13;;;12.61;96.34
54920;BME280;63804;53.120;8.764;2024-02-15T04:04:47;101654.44;;;12.60;95.95
54920;BME280;63804;53.120;8.764;2024-02-15T04:07:16;101661.44;;;12.61;95.96
54920;BME280;63804;53.120;8.764;2024-02-15T04:09:45;101662.50;;;12.59;95.63
54920;BME280;63804;53.120;8.764;2024-02-15T04:12:12;101661.75;;;12.57;95.55
54920;BME280;63804;53.120;8.764;2024-02-15T04:14:41;101667.81;;;12.59;95.21
54920;BME280;63804;53.120;8.764;2024-02-15T04:17:08;101655.47;;;12.58;95.57
54920;BME280;63804;53.120;8.764;2024-02-15T04:19:35;101653.34;;;12.63;95.29
54920;BME280;63804;53.120;8.764;2024-02-15T04:22:04;101658.78;;;12.61;95.43
54920;BME280;63804;53.120;8.764;2024-02-15T04:24:34;101657.94;;;12.61;95.38
54920;BME280;63804;53.120;8.764;2024-02-15T04:27:02;101654.44;;;12.60;95.20
54920;BME280;63804;53.120;8.764;2024-02-15T04:29:29;101653.47;;;12.61;95.05
54920;BME280;63804;53.120;8.764;2024-02-15T04:31:56;101655.47;;;12.58;95.16
54920;BME280;63804;53.120;8.764;2024-02-15T04:34:24;101660.91;;;12.56;95.17
54920;BME280;63804;53.120;8.764;2024-02-15T04:36:52;101656.34;;;12.58;95.18
54920;BME280;63804;53.120;8.764;2024-02-15T04:39:27;101652.63;;;12.61;95.09
54920;BME280;63804;53.120;8.764;2024-02-15T04:41:57;101656.13;;;12.61;94.96
54920;BME280;63804;53.120;8.764;2024-02-15T04:44:24;101655.41;;;12.59;94.71
54920;BME280;63804;53.120;8.764;2024-02-15T04:46:54;101662.22;;;12.63;94.60
54920;BME280;63804;53.120;8.764;2024-02-15T04:49:22;101661.66;;;12.58;94.72
54920;BME280;63804;53.120;8.764;2024-02-15T04:51:49;101665.06;;;12.60;94.71
54920;BME280;63804;53.120;8.764;2024-02-15T04:54:17;101658.47;;;12.53;94.86
54920;BME280;63804;53.120;8.764;2024-02-15T04:56:45;101672.06;;;12.61;94.52
54920;BME280;63804;53.120;8.764;2024-02-15T04:59:13;101669.72;;;12.57;94.61
54920;BME280;63804;53.120;8.764;2024-02-15T05:01:42;101652.09;;;12.56;94.79
54920;BME280;63804;53.120;8.764;2024-02-15T05:04:10;101653.88;;;12.55;94.88
54920;BME280;63804;53.120;8.764;2024-02-15T05:06:37;101659.94;;;12.57;95.15
54920;BME280;63804;53.120;8.764;2024-02-15T05:09:05;101657.69;;;12.51;95.43
54920;BME280;63804;53.120;8.764;2024-02-15T05:11:40;101666.31;;;12.55;95.92
54920;BME280;63804;53.120;8.764;2024-02-15T05:14:15;101664.09;;;12.49;95.83
54920;BME280;63804;53.120;8.764;2024-02-15T05:16:47;101658.47;;;12.53;95.86
54920;BME280;63804;53.120;8.764;2024-02-15T05:19:17;101664.50;;;12.55;96.36
54920;BME280;63804;53.120;8.764;2024-02-15T05:21:45;101668.13;;;12.54;96.16
54920;BME280;63804;53.120;8.764;2024-02-15T05:24:14;101671.94;;;12.50;96.62
54920;BME280;63804;53.120;8.764;2024-02-15T05:26:43;101658.56;;;12.52;96.73
54920;BME280;63804;53.120;8.764;2024-02-15T05:29:10;101661.44;;;12.49;96.93
54920;BME280;63804;53.120;8.764;2024-02-15T05:31:38;101669.41;;;12.49;97.10
54920;BME280;63804;53.120;8.764;2024-02-15T05:34:06;101661.44;;;12.49;97.26
54920;BME280;63804;53.120;8.764;2024-02-15T05:36:39;101654.81;;;12.41;97.40
54920;BME280;63804;53.120;8.764;2024-02-15T05:39:06;101646.94;;;12.40;97.83
54920;BME280;63804;53.120;8.764;2024-02-15T05:41:34;101660.47;;;12.50;97.31
54920;BME280;63804;53.120;8.764;2024-02-15T05:44:02;101656.84;;;12.51;97.63
54920;BME280;63804;53.120;8.764;2024-02-15T05:46:33;101663.88;;;12.52;97.46
54920;BME280;63804;53.120;8.764;2024-02-15T05:49:04;101655.34;;;12.47;97.93
54920;BME280;63804;53.120;8.764;2024-02-15T05:51:32;101655.47;;;12.45;97.61
54920;BME280;63804;53.120;8.764;2024-02-15T05:54:01;101654.31;;;12.49;97.99
54920;BME280;63804;53.120;8.764;2024-02-15T05:56:28;101658.00;;;12.47;98.00
54920;BME280;63804;53.120;8.764;2024-02-15T05:58:56;101652.81;;;12.45;98.01
54920;BME280;63804;53.120;8.764;2024-02-15T06:01:24;101655.34;;;12.47;97.80
54920;BME280;63804;53.120;8.764;2024-02-15T06:03:51;101647.91;;;12.39;98.29
54920;BME280;63804;53.120;8.764;2024-02-15T06:06:22;101648.47;;;12.44;98.52
54920;BME280;63804;53.120;8.764;2024-02-15T06:08:50;101651.72;;;12.48;98.42
54920;BME280;63804;53.120;8.764;2024-02-15T06:11:20;101644.66;;;12.48;98.28
54920;BME280;63804;53.120;8.764;2024-02-15T06:13:47;101647.50;;;12.45;98.16
54920;BME280;63804;53.120;8.764;2024-02-15T06:16:14;101639.63;;;12.43;98.30
54920;BME280;63804;53.120;8.764;2024-02-15T06:18:41;101643.88;;;12.46;98.42
54920;BME280;63804;53.120;8.764;2024-02-15T06:21:09;101640.19;;;12.49;98.48
54920;BME280;63804;53.120;8.764;2024-02-15T06:23:36;101643.75;;;12.48;98.28
54920;BME280;63804;53.120;8.764;2024-02-15T06:26:04;101643.47;;;12.52;98.36
54920;BME280;63804;53.120;8.764;2024-02-15T06:28:31;101641.22;;;12.46;98.34
54920;BME280;63804;53.120;8.764;2024-02-15T06:31:17;101634.88;;;12.49;98.66
54920;BME280;63804;53.120;8.764;2024-02-15T06:34:02;101644.00;;;12.44;98.87
54920;BME280;63804;53.120;8.764;2024-02-15T06:36:50;101633.91;;;12.50;98.88
54920;BME280;63804;53.120;8.764;2024-02-15T06:39:35;101635.78;;;12.48;98.57
54920;BME280;63804;53.120;8.764;2024-02-15T06:42:14;101637.31;;;12.52;98.57
54920;BME280;63804;53.120;8.764;2024-02-15T06:44:45;101629.75;;;12.46;98.99
54920;BME280;63804;53.120;8.764;2024-02-15T06:47:13;101630.41;;;12.49;98.95
54920;BME280;63804;53.120;8.764;2024-02-15T06:49:42;101626.44;;;12.42;99.16
54920;BME280;63804;53.120;8.764;2024-02-15T06:52:11;101634.53;;;12.40;99.29
54920;BME280;63804;53.120;8.764;2024-02-15T06:54:39;101623.34;;;12.35;99.49
54920;BME280;63804;53.120;8.764;2024-02-15T06:57:06;101632.94;;;12.38;99.80
54920;BME280;63804;53.120;8.764;2024-02-15T06:59:33;101632.41;;;12.46;99.25
54920;BME280;63804;53.120;8.764;2024-02-15T07:02:02;101639.75;;;12.55;99.05
54920;BME280;63804;53.120;8.764;2024-02-15T07:04:32;101643.88;;;12.46;98.67
54920;BME280;63804;53.120;8.764;2024-02-15T07:06:59;101641.03;;;12.49;98.96
54920;BME280;63804;53.120;8.764;2024-02-15T07:09:29;101641.03;;;12.49;98.83
54920;BME280;63804;53.120;8.764;2024-02-15T07:11:56;101650.59;;;12.52;98.95
54920;BME280;63804;53.120;8.764;2024-02-15T07:14:25;101648.78;;;12.52;98.82
54920;BME280;63804;53.120;8.764;2024-02-15T07:16:55;101648.16;;;12.49;98.66
54920;BME280;63804;53.120;8.764;2024-02-15T07:19:25;101642.50;;;12.53;98.70
54920;BME280;63804;53.120;8.764;2024-02-15T07:21:54;101640.50;;;12.57;98.36
54920;BME280;63804;53.120;8.764;2024-02-15T07:24:24;101633.25;;;12.59;98.33
54920;BME280;63804;53.120;8.764;2024-02-15T07:26:54;101639.22;;;12.62;98.22
54920;BME280;63804;53.120;8.764;2024-02-15T07:29:24;101633.25;;;12.59;98.20
54920;BME280;63804;53.120;8.764;2024-02-15T07:31:52;101637.72;;;12.58;98.13
54920;BME280;63804;53.120;8.764;2024-02-15T07:34:20;101638.56;;;12.59;98.26
54920;BME280;63804;53.120;8.764;2024-02-15T07:36:50;101630.53;;;12.60;98.18
54920;BME280;63804;53.120;8.764;2024-02-15T07:39:17;101642.00;;;12.61;98.08
54920;BME280;63804;53.120;8.764;2024-02-15T07:41:52;101645.19;;;12.66;98.04
54920;BME280;63804;53.120;8.764;2024-02-15T07:44:19;101641.34;;;12.70;97.55
54920;BME280;63804;53.120;8.764;2024-02-15T07:46:46;101649.31;;;12.70;97.58
54920;BME280;63804;53.120;8.764;2024-02-15T07:49:13;101640.50;;;12.69;97.54
54920;BME280;63804;53.120;8.764;2024-02-15T07:51:41;101646.59;;;12.72;97.37
54920;BME280;63804;53.120;8.764;2024-02-15T07:54:08;101646.25;;;12.76;97.17
54920;BME280;63804;53.120;8.764;2024-02-15T07:56:35;101646.25;;;12.76;97.12
54920;BME280;63804;53.120;8.764;2024-02-15T07:59:02;101644.25;;;12.80;96.94
54920;BME280;63804;53.120;8.764;2024-02-15T08:01:30;101645.09;;;12.80;96.69
54920;BME280;63804;53.120;8.764;2024-02-15T08:03:58;101643.81;;;12.73;97.21
54920;BME280;63804;53.120;8.764;2024-02-15T08:06:25;101639.97;;;12.77;97.22
54920;BME280;63804;53.120;8.764;2024-02-15T08:08:55;101648.06;;;12.76;97.13
54920;BME280;63804;53.120;8.764;2024-02-15T08:11:22;101644.56;;;12.75;97.18
54920;BME280;63804;53.120;8.764;2024-02-15T08:13:51;101650.41;;;12.80;97.11
54920;BME280;63804;53.120;8.764;2024-02-15T08:16:22;101640.41;;;12.84;96.79
54920;BME280;63804;53.120;8.764;2024-02-15T08:18:50;101635.88;;;12.86;96.78
54920;BME280;63804;53.120;8.764;2024-02-15T08:21:30;101640.22;;;12.87;96.85
54920;BME280;63804;53.120;8.764;2024-02-15T08:24:00;101640.31;;;12.85;96.98
54920;BME280;63804;53.120;8.764;2024-02-15T08:26:28;101624.34;;;12.85;96.71
54920;BME280;63804;53.120;8.764;2024-02-15T08:28:56;101639.78;;;12.93;96.20
54920;BME280;63804;53.120;8.764;2024-02-15T08:31:24;101639.25;;;12.88;96.62
54920;BME280;63804;53.120;8.764;2024-02-15T08:33:51;101632.56;;;12.95;96.48
54920;BME280;63804;53.120;8.764;2024-02-15T08:36:18;101644.03;;;12.96;96.39
54920;BME280;63804;53.120;8.764;2024-02-15T08:38:45;101629.69;;;12.98;96.41
54920;BME280;63804;53.120;8.764;2024-02-15T08:41:13;101632.44;;;12.97;96.28
54920;BME280;63804;53.120;8.764;2024-02-15T08:43:40;101634.69;;;13.03;95.85
54920;BME280;63804;53.120;8.764;2024-02-15T08:46:08;101630.84;;;13.07;95.72
54920;BME280;63804;53.120;8.764;2024-02-15T08:48:36;101629.25;;;13.04;95.86
54920;BME280;63804;53.120;8.764;2024-02-15T08:51:04;101629.47;;;13.01;96.12
54920;BME280;63804;53.120;8.764;2024-02-15T08:53:33;101628.19;;;13.07;95.70
54920;BME280;63804;53.120;8.764;2024-02-15T08:56:00;101627.34;;;13.06;95.78
54920;BME280;63804;53.120;8.764;2024-02-15T08:58:27;101620.63;;;13.01;95.84
54920;BME280;63804;53.120;8.764;2024-02-15T09:00:54;101623.19;;;13.02;95.99
54920;BME280;63804;53.120;8.764;2024-02-15T09:03:21;101622.44;;;13.13;95.39
54920;BME280;63804;53.120;8.764;2024-02-15T09:05:48;101618.50;;;13.18;95.11
54920;BME280;63804;53.120;8.764;2024-02-15T09:08:16;101628.16;;;13.20;94.72
54920;BME280;63804;53.120;8.764;2024-02-15T09:10:49;101619.88;;;13.11;95.24
54920;BME280;63804;53.120;8.764;2024-02-15T09:13:17;101626.50;;;13.06;95.68
54920;BME280;63804;53.120;8.764;2024-02-15T09:15:44;101616.78;;;13.05;95.54
54920;BME280;63804;53.120;8.764;2024-02-15T09:18:11;101613.50;;;13.14;95.18
54920;BME280;63804;53.120;8.764;2024-02-15T09:20:38;101610.72;;;13.15;95.20
54920;BME280;63804;53.120;8.764;2024-02-15T09:23:11;101612.09;;;13.21;94.90
54920;BME280;63804;53.120;8.764;2024-02-15T09:25:39;101603.06;;;13.24;94.58
54920;BME280;63804;53.120;8.764;2024-02-15T09:28:06;101603.28;;;13.21;94.99
54920;BME280;63804;53.120;8.764;2024-02-15T09:30:33;101603.72;;;13.27;94.70
54920;BME280;63804;53.120;8.764;2024-02-15T09:33:02;101603.81;;;13.26;94.93
54920;BME280;63804;53.120;8.764;2024-02-15T09:35:32;101548.75;;;12.89;94.78
54920;BME280;63804;53.120;8.764;2024-02-15T09:38:00;101594.56;;;13.18;95.01
54920;BME280;63804;53.120;8.764;2024-02-15T09:40:27;101597.75;;;13.24;94.61
54920;BME280;63804;53.120;8.764;2024-02-15T09:42:59;101612.94;;;13.34;94.30
54920;BME280;63804;53.120;8.764;2024-02-15T09:45:26;101608.19;;;13.27;94.80
54920;BME280;63804;53.120;8.764;2024-02-15T09:47:54;101617.31;;;13.23;94.84
54920;BME280;63804;53.120;8.764;2024-02-15T09:50:25;101613.94;;;13.21;95.04
54920;BME280;63804;53.120;8.764;2024-02-15T09:52:57;101609.28;;;13.24;94.90
54920;BME280;63804;53.120;8.764;2024-02-15T09:55:25;101609.03;;;13.27;94.74
54920;BME280;63804;53.120;8.764;2024-02-15T09:57:52;101610.50;;;13.18;95.21
54920;BME280;63804;53.120;8.764;2024-02-15T10:00:19;101611.06;;;13.24;95.30
54920;BME280;63804;53.120;8.764;2024-02-15T10:02:50;101610.13;;;13.25;95.22
54920;BME280;63804;53.120;8.764;2024-02-15T10:05:18;101611.34;;;13.19;95.52
54920;BME280;63804;53.120;8.764;2024-02-15T10:07:48;101609.03;;;13.27;95.37
54920;BME280;63804;53.120;8.764;2024-02-15T10:10:17;101613.94;;;13.33;95.23
54920;BME280;63804;53.120;8.764;2024-02-15T10:12:48;101620.19;;;13.20;96.14
54920;BME280;63804;53.120;8.764;2024-02-15T10:15:34;101626.59;;;13.30;95.83
54920;BME280;63804;53.120;8.764;2024-02-15T10:18:07;101628.50;;;13.28;95.87
54920;BME280;63804;53.120;8.764;2024-02-15T10:20:38;101619.16;;;13.09;96.55
54920;BME280;63804;53.120;8.764;2024-02-15T10:23:16;101617.84;;;13.15;96.37
54920;BME280;63804;53.120;8.764;2024-02-15T10:25:47;101627.66;;;13.14;96.72
54920;BME280;63804;53.120;8.764;2024-02-15T10:28:20;101623.50;;;13.10;96.46
54920;BME280;63804;53.120;8.764;2024-02-15T10:30:51;101626.69;;;13.03;97.14
54920;BME280;63804;53.120;8.764;2024-02-15T10:33:26;101611.81;;;13.13;96.69
54920;BME280;63804;53.120;8.764;2024-02-15T10:36:08;101610.84;;;13.14;96.41
54920;BME280;63804;53.120;8.764;2024-02-15T10:38:35;101612.31;;;13.18;96.51
54920;BME280;63804;53.120;8.764;2024-02-15T10:41:04;101606.91;;;13.32;96.06
54920;BME280;63804;53.120;8.764;2024-02-15T10:43:36;101607.84;;;13.31;96.22
54920;BME280;63804;53.120;8.764;2024-02-15T10:46:07;101606.63;;;13.24;96.28
54920;BME280;63804;53.120;8.764;2024-02-15T10:48:38;101597.22;;;13.31;96.36
54920;BME280;63804;53.120;8.764;2024-02-15T10:51:09;101592.44;;;13.36;96.17
54920;BME280;63804;53.120;8.764;2024-02-15T10:53:39;101585.78;;;13.42;95.74
54920;BME280;63804;53.120;8.764;2024-02-15T10:56:27;101584.31;;;13.38;95.92
54920;BME280;63804;53.120;8.764;2024-02-15T10:59:16;101587.63;;;13.41;95.86
54920;BME280;63804;53.120;8.764;2024-02-15T11:01:49;101589.66;;;13.38;96.35
54920;BME280;63804;53.120;8.764;2024-02-15T11:04:21;101585.28;;;13.37;96.50
54920;BME280;63804;53.120;8.764;2024-02-15T11:06:49;101587.19;;;13.35;96.32
54920;BME280;63804;53.120;8.764;2024-02-15T11:09:17;101583.59;;;13.23;96.73
54920;BME280;63804;53.120;8.764;2024-02-15T11:11:46;101571.59;;;13.17;96.70
54920;BME280;63804;53.120;8.764;2024-02-15T11:14:30;101581.25;;;13.31;96.26
54920;BME280;63804;53.120;8.764;2024-02-15T11:17:00;101573.38;;;13.30;96.41
54920;BME280;63804;53.120;8.764;2024-02-15T11:22:11;101573.69;;;13.12;96.83
54920;BME280;63804;53.120;8.764;2024-02-15T11:24:50;101578.81;;;13.15;96.73
54920;BME280;63804;53.120;8.764;2024-02-15T11:27:29;101580.19;;;13.21;96.52
54920;BME280;63804;53.120;8.764;2024-02-15T11:30:00;101575.94;;;13.18;96.42
54920;BME280;63804;53.120;8.764;2024-02-15T11:32:43;101570.94;;;13.27;96.12
54920;BME280;63804;53.120;8.764;2024-02-15T11:35:13;101561.16;;;13.14;96.74
54920;BME280;63804;53.120;8.764;2024-02-15T11:42:46;101568.59;;;13.22;96.20
54920;BME280;63804;53.120;8.764;2024-02-15T11:45:13;101570.50;;;13.20;96.15
54920;BME280;63804;53.120;8.764;2024-02-15T11:47:42;101567.75;;;13.22;95.70
54920;BME280;63804;53.120;8.764;2024-02-15T11:50:10;101564.78;;;13.26;95.77
54920;BME280;63804;53.120;8.764;2024-02-15T11:52:42;101560.59;;;13.35;95.52
54920;BME280;63804;53.120;8.764;2024-02-15T11:55:10;101573.81;;;13.36;95.35
54920;BME280;63804;53.120;8.764;2024-02-15T11:57:40;101563.50;;;13.32;95.46
54920;BME280;63804;53.120;8.764;2024-02-15T12:00:24;101566.59;;;13.26;95.50
54920;BME280;63804;53.120;8.764;2024-02-15T12:03:14;101556.47;;;13.18;95.78
54920;BME280;63804;53.120;8.764;2024-02-15T12:06:00;101554.53;;;13.20;96.11
54920;BME280;63804;53.120;8.764;2024-02-15T12:08:47;101559.66;;;13.36;95.37
54920;BME280;63804;53.120;8.764;2024-02-15T12:11:33;101551.97;;;13.44;94.95
54920;BME280;63804;53.120;8.764;2024-02-15T12:14:19;101551.63;;;13.49;94.96
54920;BME280;63804;53.120;8.764;2024-02-15T12:17:10;101556.16;;;13.59;94.56
54920;BME280;63804;53.120;8.764;2024-02-15T12:19:59;101552.38;;;13.51;94.71
54920;BME280;63804;53.120;8.764;2024-02-15T12:22:31;101544.03;;;13.55;94.77
54920;BME280;63804;53.120;8.764;2024-02-15T12:25:00;101552.13;;;13.54;94.75
54920;BME280;63804;53.120;8.764;2024-02-15T12:27:29;101551.06;;;13.56;94.72
54920;BME280;63804;53.120;8.764;2024-02-15T12:29:58;101546.34;;;13.60;94.47
54920;BME280;63804;53.120;8.764;2024-02-15T12:32:26;101541.66;;;13.63;94.38
54920;BME280;63804;53.120;8.764;2024-02-15T12:35:12;101542.84;;;13.59;94.19
54920;BME280;63804;53.120;8.764;2024-02-15T12:37:43;101536.16;;;13.54;94.72
54920;BME280;63804;53.120;8.764;2024-02-15T12:40:16;101550.63;;;13.62;94.48
54920;BME280;63804;53.120;8.764;2024-02-15T12:42:45;101548.53;;;13.55;94.51
54920;BME280;63804;53.120;8.764;2024-02-15T12:45:17;101556.94;;;13.49;94.51
54920;BME280;63804;53.120;8.764;2024-02-15T12:47:51;101549.31;;;13.44;94.59
54920;BME280;63804;53.120;8.764;2024-02-15T12:50:20;101556.31;;;13.45;94.72
54920;BME280;63804;53.120;8.764;2024-02-15T12:52:50;101551.56;;;13.37;94.92
54920;BME280;63804;53.120;8.764;2024-02-15T12:55:19;101543.97;;;13.44;94.98
54920;BME280;63804;53.120;8.764;2024-02-15T12:57:54;101547.91;;;13.51;94.67
54920;BME280;63804;53.120;8.764;2024-02-15T13:00:26;101551.75;;;13.47;94.73
54920;BME280;63804;53.120;8.764;2024-02-15T13:03:02;101534.28;;;13.43;94.53
54920;BME280;63804;53.120;8.764;2024-02-15T13:05:37;101542.88;;;13.47;94.45
54920;BME280;63804;53.120;8.764;2024-02-15T13:08:06;101540.06;;;13.37;94.93
54920;BME280;63804;53.120;8.764;2024-02-15T13:10:37;101540.78;;;13.39;94.79
54920;BME280;63804;53.120;8.764;2024-02-15T13:13:07;101536.44;;;13.38;94.93